createdAt,value
2022-07-30T00:00:38.776Z,13.18
2022-07-30T00:03:05.543Z,9.93
2022-07-30T00:05:32.262Z,10.50
2022-07-30T00:07:58.908Z,10.13
2022-07-30T00:10:25.976Z,12.38
2022-07-30T00:12:52.723Z,9.95
2022-07-30T00:15:19.492Z,6.23
2022-07-30T00:17:46.727Z,8.55
2022-07-30T00:20:16.748Z,9.80
2022-07-30T00:22:45.257Z,15.25
2022-07-30T00:25:12.035Z,8.40
2022-07-30T00:27:39.078Z,12.00
2022-07-30T00:30:06.626Z,9.48
2022-07-30T00:32:33.350Z,9.75
2022-07-30T00:35:00.001Z,9.23
2022-07-30T00:37:26.811Z,10.43
2022-07-30T00:39:53.706Z,9.63
2022-07-30T00:42:25.656Z,12.20
2022-07-30T00:44:53.123Z,9.02
2022-07-30T00:47:20.279Z,10.75
2022-07-30T00:49:47.402Z,9.73
2022-07-30T00:52:14.120Z,8.83
2022-07-30T00:54:43.752Z,7.90
2022-07-30T00:57:10.441Z,9.23
2022-07-30T00:59:37.151Z,10.32
2022-07-30T01:02:03.943Z,8.13
2022-07-30T01:04:31.058Z,7.33
2022-07-30T01:06:58.361Z,10.05
2022-07-30T01:09:25.235Z,10.60
2022-07-30T01:11:52.064Z,8.02
2022-07-30T01:14:19.099Z,14.25
2022-07-30T01:16:46.233Z,9.67
2022-07-30T01:19:45.160Z,8.10
2022-07-30T01:22:31.396Z,8.38
2022-07-30T01:25:08.219Z,8.02
2022-07-30T01:27:40.290Z,11.80
2022-07-30T01:30:08.502Z,11.10
2022-07-30T01:32:38.680Z,9.98
2022-07-30T01:35:07.180Z,9.50
2022-07-30T01:37:34.889Z,12.50
2022-07-30T01:40:02.751Z,9.88
2022-07-30T01:42:30.587Z,7.23
2022-07-30T01:44:59.208Z,8.02
2022-07-30T01:47:27.589Z,8.80
2022-07-30T01:49:56.028Z,11.48
2022-07-30T01:52:26.314Z,13.00
2022-07-30T01:54:56.304Z,9.97
2022-07-30T01:57:24.541Z,8.27
2022-07-30T01:59:57.821Z,11.35
2022-07-30T02:02:25.431Z,8.18
2022-07-30T02:04:52.183Z,11.27
2022-07-30T02:07:27.416Z,7.77
2022-07-30T02:09:59.407Z,9.52
2022-07-30T02:12:29.974Z,11.43
2022-07-30T02:15:28.822Z,10.73
2022-07-30T02:18:07.194Z,8.98
2022-07-30T02:20:35.816Z,8.67
2022-07-30T02:23:10.812Z,10.68
2022-07-30T02:25:42.188Z,9.52
2022-07-30T02:28:12.705Z,9.25
2022-07-30T02:30:45.915Z,8.10
2022-07-30T02:33:15.472Z,9.57
2022-07-30T02:35:42.779Z,8.43
2022-07-30T02:38:12.485Z,8.70
2022-07-30T02:40:41.926Z,16.15
2022-07-30T02:43:09.080Z,9.75
2022-07-30T02:45:37.919Z,7.20
2022-07-30T02:48:07.512Z,8.13
2022-07-30T02:50:35.431Z,13.05
2022-07-30T02:53:05.055Z,12.30
2022-07-30T02:55:35.926Z,11.63
2022-07-30T02:58:05.521Z,8.40
2022-07-30T03:00:33.866Z,12.13
2022-07-30T03:03:02.288Z,10.75
2022-07-30T03:05:29.774Z,7.50
2022-07-30T03:07:59.607Z,12.30
2022-07-30T03:10:27.726Z,11.07
2022-07-30T03:12:55.384Z,8.43
2022-07-30T03:15:22.543Z,11.30
2022-07-30T03:17:54.110Z,9.02
2022-07-30T03:20:27.682Z,9.93
2022-07-30T03:22:57.164Z,9.63
2022-07-30T03:25:26.827Z,10.32
2022-07-30T03:27:59.285Z,8.50
2022-07-30T03:30:27.996Z,8.15
2022-07-30T03:32:57.151Z,14.40
2022-07-30T03:35:27.551Z,8.73
2022-07-30T03:37:59.828Z,10.07
2022-07-30T03:40:27.404Z,10.13
2022-07-30T03:42:55.121Z,10.00
2022-07-30T03:45:24.662Z,10.75
2022-07-30T03:47:56.119Z,8.87
2022-07-30T03:50:23.517Z,11.20
2022-07-30T03:52:51.160Z,10.95
2022-07-30T03:55:18.381Z,14.90
2022-07-30T03:57:48.879Z,13.75
2022-07-30T04:00:17.147Z,12.93
2022-07-30T04:02:48.852Z,9.35
2022-07-30T04:05:37.703Z,9.07
2022-07-30T04:08:09.071Z,10.88
2022-07-30T04:10:35.870Z,11.52
2022-07-30T04:13:37.645Z,10.80
2022-07-30T04:16:38.796Z,11.63
2022-07-30T04:19:14.221Z,11.05
2022-07-30T04:21:42.566Z,11.10
2022-07-30T04:24:12.634Z,9.73
2022-07-30T04:26:39.812Z,8.67
2022-07-30T04:29:13.811Z,12.13
2022-07-30T04:31:46.067Z,11.32
2022-07-30T04:34:33.402Z,14.43
2022-07-30T04:37:00.648Z,11.90
2022-07-30T04:39:28.858Z,15.27
2022-07-30T04:41:56.003Z,14.13
2022-07-30T04:44:34.388Z,10.35
2022-07-30T04:47:34.117Z,8.82
2022-07-30T04:50:24.311Z,10.57
2022-07-30T04:52:53.538Z,16.40
2022-07-30T04:55:27.031Z,12.43
2022-07-30T04:57:54.872Z,12.80
2022-07-30T05:00:22.287Z,12.35
2022-07-30T05:02:51.843Z,15.68
2022-07-30T05:05:20.406Z,12.13
2022-07-30T05:07:47.914Z,15.05
2022-07-30T05:10:14.978Z,12.48
2022-07-30T05:12:42.571Z,12.88
2022-07-30T05:15:10.943Z,14.40
2022-07-30T05:17:37.997Z,12.90
2022-07-30T05:20:08.281Z,15.48
2022-07-30T05:22:51.900Z,11.23
2022-07-30T05:25:21.011Z,9.68
2022-07-30T05:27:48.890Z,8.63
2022-07-30T05:30:15.699Z,12.00
2022-07-30T05:32:46.926Z,14.75
2022-07-30T05:35:13.785Z,10.23
2022-07-30T05:37:40.608Z,15.65
2022-07-30T05:40:07.875Z,9.75
2022-07-30T05:42:59.239Z,10.60
2022-07-30T05:45:27.592Z,15.27
2022-07-30T05:47:54.906Z,12.25
2022-07-30T05:50:21.796Z,21.60
2022-07-30T05:52:48.559Z,13.63
2022-07-30T05:55:35.490Z,16.83
2022-07-30T05:58:21.660Z,13.30
2022-07-30T06:00:49.009Z,12.82
2022-07-30T06:03:16.606Z,13.20
2022-07-30T06:06:05.567Z,9.90
2022-07-30T06:08:32.436Z,11.97
2022-07-30T06:10:59.314Z,9.57
2022-07-30T06:13:26.183Z,11.45
2022-07-30T06:15:53.310Z,9.18
2022-07-30T06:18:20.105Z,11.02
2022-07-30T06:20:54.071Z,11.67
2022-07-30T06:23:30.080Z,9.18
2022-07-30T06:26:35.333Z,6.47
2022-07-30T06:29:03.512Z,11.40
2022-07-30T06:31:30.968Z,11.10
2022-07-30T06:33:57.740Z,10.53
2022-07-30T06:36:27.383Z,9.13
2022-07-30T06:39:00.703Z,6.72
2022-07-30T06:41:46.067Z,7.70
2022-07-30T06:44:14.391Z,6.32
2022-07-30T06:47:05.300Z,7.47
2022-07-30T06:49:35.236Z,7.63
2022-07-30T06:52:02.251Z,7.05
2022-07-30T06:54:30.071Z,8.35
2022-07-30T06:57:08.867Z,7.20
2022-07-30T06:59:57.008Z,9.57
2022-07-30T07:02:30.756Z,7.65
2022-07-30T07:05:07.307Z,9.93
2022-07-30T07:07:42.341Z,6.15
2022-07-30T07:10:13.675Z,6.53
2022-07-30T07:12:51.336Z,7.00
2022-07-30T07:15:22.347Z,6.75
2022-07-30T07:18:07.843Z,9.65
2022-07-30T07:20:37.190Z,5.90
2022-07-30T07:23:09.314Z,5.20
2022-07-30T07:25:39.366Z,6.00
2022-07-30T07:28:11.700Z,6.95
2022-07-30T07:30:43.297Z,8.60
2022-07-30T07:33:10.827Z,5.20
2022-07-30T07:35:48.690Z,8.00
2022-07-30T07:38:19.476Z,5.67
2022-07-30T07:40:47.426Z,8.13
2022-07-30T07:43:14.773Z,11.95
2022-07-30T07:45:42.961Z,11.10
2022-07-30T07:48:09.967Z,7.70
2022-07-30T07:51:09.693Z,8.03
2022-07-30T07:53:36.903Z,7.25
2022-07-30T07:56:04.016Z,6.55
2022-07-30T07:58:31.130Z,5.68
2022-07-30T08:01:00.926Z,7.65
2022-07-30T08:03:47.921Z,6.80
2022-07-30T08:06:40.374Z,3.80
2022-07-30T08:09:25.931Z,5.72
2022-07-30T08:12:16.762Z,6.10
2022-07-30T08:15:03.277Z,7.30
2022-07-30T08:17:52.253Z,4.97
2022-07-30T08:20:24.914Z,7.75
2022-07-30T08:22:52.188Z,5.03
2022-07-30T08:25:22.271Z,5.65
2022-07-30T08:27:52.587Z,4.25
2022-07-30T08:30:20.497Z,5.33
2022-07-30T08:32:47.447Z,6.63
2022-07-30T08:35:14.243Z,5.85
2022-07-30T08:37:42.132Z,5.90
2022-07-30T08:40:09.627Z,7.93
2022-07-30T08:42:44.295Z,6.27
2022-07-30T08:45:13.648Z,5.00
2022-07-30T08:47:44.573Z,7.13
2022-07-30T08:50:11.579Z,5.55
2022-07-30T08:53:03.285Z,9.77
2022-07-30T08:55:30.170Z,5.50
2022-07-30T08:57:57.459Z,4.28
2022-07-30T09:00:24.365Z,4.50
2022-07-30T09:02:51.093Z,5.25
2022-07-30T09:05:18.597Z,5.07
2022-07-30T09:07:45.412Z,5.63
2022-07-30T09:10:18.932Z,4.88
2022-07-30T09:12:46.342Z,4.85
2022-07-30T09:15:20.218Z,4.40
2022-07-30T09:18:03.947Z,4.28
2022-07-30T09:20:34.836Z,3.00
2022-07-30T09:23:06.448Z,5.70
2022-07-30T09:25:54.219Z,5.88
2022-07-30T09:28:39.182Z,4.95
2022-07-30T09:31:16.162Z,8.40
2022-07-30T09:34:01.293Z,7.10
2022-07-30T09:36:46.558Z,4.43
2022-07-30T09:39:38.904Z,6.40
2022-07-30T09:42:27.741Z,4.30
2022-07-30T09:45:09.226Z,5.63
2022-07-30T09:47:38.859Z,3.40
2022-07-30T09:50:08.374Z,4.78
2022-07-30T09:52:36.217Z,6.10
2022-07-30T09:55:12.184Z,4.65
2022-07-30T09:57:57.725Z,6.22
2022-07-30T10:00:28.472Z,7.53
2022-07-30T10:03:33.922Z,7.07
2022-07-30T10:06:33.256Z,5.03
2022-07-30T10:09:01.600Z,5.53
2022-07-30T10:11:41.259Z,7.60
2022-07-30T10:14:08.946Z,9.60
2022-07-30T10:16:35.695Z,9.02
2022-07-30T10:19:02.963Z,4.45
2022-07-30T10:22:06.299Z,6.75
2022-07-30T10:24:52.287Z,5.85
2022-07-30T10:27:20.313Z,7.40
2022-07-30T10:29:59.463Z,7.35
2022-07-30T10:32:31.268Z,5.63
2022-07-30T10:34:59.508Z,6.75
2022-07-30T10:37:30.843Z,5.85
2022-07-30T10:40:19.588Z,8.27
2022-07-30T10:43:31.625Z,5.53
2022-07-30T10:46:44.744Z,7.75
2022-07-30T10:49:18.742Z,5.28
2022-07-30T10:51:50.906Z,5.10
2022-07-30T10:54:39.284Z,6.07
2022-07-30T10:57:26.548Z,6.90
2022-07-30T10:59:59.928Z,4.07
2022-07-30T11:02:31.294Z,7.70
2022-07-30T11:05:17.378Z,4.22
2022-07-30T11:07:48.323Z,5.27
2022-07-30T11:10:41.221Z,4.72
2022-07-30T11:13:12.848Z,5.63
2022-07-30T11:16:00.187Z,3.70
2022-07-30T11:18:30.548Z,5.93
2022-07-30T11:21:21.314Z,4.77
2022-07-30T11:23:53.406Z,4.30
2022-07-30T11:26:41.691Z,6.07
2022-07-30T11:29:50.742Z,4.45
2022-07-30T11:32:34.887Z,4.78
2022-07-30T11:35:25.518Z,5.53
2022-07-30T11:38:01.990Z,3.60
2022-07-30T11:40:59.479Z,3.63
2022-07-30T11:43:36.038Z,4.07
2022-07-30T11:46:28.823Z,3.83
2022-07-30T11:48:57.442Z,3.63
2022-07-30T11:51:24.685Z,6.30
2022-07-30T11:54:05.734Z,7.18
2022-07-30T11:56:33.143Z,5.22
2022-07-30T11:59:04.303Z,5.38
2022-07-30T12:01:33.306Z,5.40
2022-07-30T12:04:06.800Z,9.30
2022-07-30T12:06:36.366Z,7.38
2022-07-30T12:09:03.328Z,5.72
2022-07-30T12:11:35.171Z,4.30
2022-07-30T12:14:02.814Z,4.57
2022-07-30T12:16:31.187Z,5.65
2022-07-30T12:19:05.396Z,4.95
2022-07-30T12:21:32.865Z,5.32
2022-07-30T12:24:07.369Z,4.78
2022-07-30T12:26:34.931Z,6.77
2022-07-30T12:29:07.221Z,4.40
2022-07-30T12:31:34.172Z,2.83
2022-07-30T12:34:05.155Z,6.60
2022-07-30T12:36:34.782Z,4.55
2022-07-30T12:39:04.880Z,4.67
2022-07-30T12:41:46.775Z,4.50
2022-07-30T12:44:35.492Z,4.13
2022-07-30T12:47:04.665Z,4.00
2022-07-30T12:49:39.391Z,4.25
2022-07-30T12:52:28.548Z,5.43
2022-07-30T12:55:10.657Z,4.05
2022-07-30T12:57:56.189Z,4.10
2022-07-30T13:00:31.772Z,3.95
2022-07-30T13:02:59.306Z,6.38
2022-07-30T13:05:49.819Z,4.13
2022-07-30T13:08:17.522Z,4.07
2022-07-30T13:10:57.161Z,4.03
2022-07-30T13:13:26.858Z,3.25
2022-07-30T13:16:05.041Z,5.15
2022-07-30T13:18:33.321Z,2.43
2022-07-30T13:21:01.425Z,4.55
2022-07-30T13:23:29.828Z,2.63
2022-07-30T13:25:57.624Z,4.47
2022-07-30T13:28:24.895Z,4.70
2022-07-30T13:30:51.884Z,6.07
2022-07-30T13:33:18.896Z,3.80
2022-07-30T13:35:45.702Z,2.97
2022-07-30T13:38:13.526Z,6.22
2022-07-30T13:40:40.254Z,4.50
2022-07-30T13:43:07.059Z,3.23
2022-07-30T13:45:34.853Z,3.30
2022-07-30T13:48:02.304Z,4.63
2022-07-30T13:50:28.995Z,4.35
2022-07-30T13:53:01.691Z,6.32
2022-07-30T13:55:29.262Z,4.93
2022-07-30T13:57:56.161Z,4.97
2022-07-30T14:00:23.127Z,3.38
2022-07-30T14:02:50.120Z,4.18
2022-07-30T14:05:17.027Z,4.90
2022-07-30T14:07:43.690Z,3.77
2022-07-30T14:10:10.503Z,4.35
2022-07-30T14:12:37.913Z,3.65
2022-07-30T14:15:05.047Z,5.22
2022-07-30T14:17:31.934Z,3.90
2022-07-30T14:19:58.642Z,12.00
2022-07-30T14:22:25.409Z,7.15
2022-07-30T14:24:52.113Z,8.82
2022-07-30T14:27:20.380Z,6.88
2022-07-30T14:29:47.303Z,7.15
2022-07-30T14:32:14.096Z,6.70
2022-07-30T14:34:41.161Z,5.18
2022-07-30T14:37:15.973Z,10.90
2022-07-30T14:39:42.630Z,6.93
2022-07-30T14:42:09.421Z,8.82
2022-07-30T14:44:36.134Z,7.60
2022-07-30T14:47:03.389Z,6.03
2022-07-30T14:49:30.580Z,6.88
2022-07-30T14:51:57.370Z,5.78
2022-07-30T14:54:24.228Z,4.78
2022-07-30T14:56:56.185Z,4.23
2022-07-30T14:59:25.533Z,10.15
2022-07-30T15:01:52.714Z,8.10
2022-07-30T15:04:19.513Z,8.20
2022-07-30T15:06:46.176Z,5.22
2022-07-30T15:09:13.887Z,5.43
2022-07-30T15:12:07.722Z,3.75
2022-07-30T15:14:28.438Z,3.55
2022-07-30T15:16:56.794Z,5.55
2022-07-30T15:19:26.727Z,7.60
2022-07-30T15:21:53.472Z,5.60
2022-07-30T15:24:20.319Z,4.82
2022-07-30T15:26:48.527Z,4.10
2022-07-30T15:29:15.221Z,14.80
2022-07-30T15:31:41.996Z,5.60
2022-07-30T15:34:10.787Z,4.73
2022-07-30T15:36:38.962Z,7.68
2022-07-30T15:39:06.615Z,5.70
2022-07-30T15:41:33.850Z,4.32
2022-07-30T15:44:00.494Z,7.63
2022-07-30T15:46:27.222Z,7.73
2022-07-30T15:48:53.912Z,4.10
2022-07-30T15:51:20.632Z,4.90
2022-07-30T15:53:47.289Z,3.85
2022-07-30T15:56:15.598Z,5.10
2022-07-30T15:58:43.643Z,4.43
2022-07-30T16:01:10.629Z,5.30
2022-07-30T16:03:37.390Z,5.93
2022-07-30T16:06:04.142Z,9.50
2022-07-30T16:08:30.829Z,4.00
2022-07-30T16:10:58.293Z,5.70
2022-07-30T16:13:24.986Z,5.80
2022-07-30T16:15:51.687Z,4.70
2022-07-30T16:18:18.455Z,5.40
2022-07-30T16:20:45.151Z,7.13
2022-07-30T16:23:14.190Z,3.87
2022-07-30T16:25:43.718Z,4.32
2022-07-30T16:28:10.411Z,9.48
2022-07-30T16:30:40.662Z,7.53
2022-07-30T16:33:18.099Z,5.25
2022-07-30T16:35:49.323Z,3.70
2022-07-30T16:38:23.155Z,7.03
2022-07-30T16:40:50.185Z,6.47
2022-07-30T16:43:19.663Z,4.20
2022-07-30T16:45:47.162Z,4.60
2022-07-30T16:48:13.896Z,2.93
2022-07-30T16:50:41.432Z,5.40
2022-07-30T16:53:14.127Z,4.38
2022-07-30T16:55:44.277Z,4.82
2022-07-30T16:58:11.605Z,5.10
2022-07-30T17:00:39.135Z,6.07
2022-07-30T17:03:05.938Z,4.50
2022-07-30T17:05:32.908Z,5.53
2022-07-30T17:07:59.718Z,3.40
2022-07-30T17:10:27.170Z,5.68
2022-07-30T17:12:54.673Z,5.13
2022-07-30T17:15:32.049Z,5.00
2022-07-30T17:17:59.016Z,7.13
2022-07-30T17:20:25.690Z,6.93
2022-07-30T17:22:55.145Z,5.78
2022-07-30T17:25:23.540Z,5.27
2022-07-30T17:27:50.472Z,5.72
2022-07-30T17:30:17.268Z,6.78
2022-07-30T17:32:43.978Z,6.28
2022-07-30T17:35:13.885Z,3.00
2022-07-30T17:37:41.048Z,3.20
2022-07-30T17:40:29.629Z,8.18
2022-07-30T17:42:55.610Z,5.50
2022-07-30T17:45:24.647Z,4.97
2022-07-30T17:47:53.372Z,5.38
2022-07-30T17:50:20.107Z,7.00
2022-07-30T17:52:46.808Z,6.18
2022-07-30T17:55:16.661Z,4.70
2022-07-30T17:57:43.412Z,6.57
2022-07-30T18:00:10.673Z,6.75
2022-07-30T18:02:37.363Z,4.60
2022-07-30T18:05:04.468Z,5.63
2022-07-30T18:07:31.134Z,6.40
2022-07-30T18:09:57.929Z,4.68
2022-07-30T18:12:24.591Z,6.35
2022-07-30T18:14:51.881Z,3.70
2022-07-30T18:17:18.549Z,8.70
2022-07-30T18:19:45.224Z,7.72
2022-07-30T18:22:14.687Z,5.78
2022-07-30T18:24:43.719Z,5.50
2022-07-30T18:27:14.246Z,6.03
2022-07-30T18:29:41.169Z,3.90
2022-07-30T18:32:08.640Z,4.30
2022-07-30T18:34:35.706Z,4.20
2022-07-30T18:37:02.418Z,4.95
2022-07-30T18:39:29.139Z,8.60
2022-07-30T18:41:56.001Z,5.30
2022-07-30T18:44:22.680Z,5.38
2022-07-30T18:46:49.334Z,6.60
2022-07-30T18:49:35.615Z,6.22
2022-07-30T18:52:03.197Z,4.47
2022-07-30T18:54:30.298Z,5.07
2022-07-30T18:56:56.963Z,6.40
2022-07-30T18:59:23.637Z,7.75
2022-07-30T19:01:50.623Z,4.88
2022-07-30T19:04:17.562Z,6.10
2022-07-30T19:06:44.530Z,9.02
2022-07-30T19:09:17.561Z,8.27
2022-07-30T19:11:46.198Z,4.47
2022-07-30T19:14:13.942Z,5.55
2022-07-30T19:16:42.319Z,6.37
2022-07-30T19:19:09.544Z,4.45
2022-07-30T19:21:36.343Z,4.80
2022-07-30T19:24:03.705Z,7.93
2022-07-30T19:26:30.604Z,6.35
2022-07-30T19:28:57.729Z,10.13
2022-07-30T19:31:26.740Z,5.10
2022-07-30T19:33:53.440Z,8.45
2022-07-30T19:36:23.072Z,6.35
2022-07-30T19:38:50.036Z,12.27
2022-07-30T19:41:17.016Z,7.83
2022-07-30T19:43:58.126Z,5.55
2022-07-30T19:46:25.518Z,4.93
2022-07-30T19:48:52.331Z,6.97
2022-07-30T19:51:20.707Z,4.80
2022-07-30T19:53:48.080Z,6.67
2022-07-30T19:56:14.781Z,6.10
2022-07-30T19:58:41.443Z,11.30
2022-07-30T20:01:08.807Z,6.35
2022-07-30T20:03:36.253Z,8.15
2022-07-30T20:06:07.689Z,8.70
2022-07-30T20:08:35.956Z,4.88
2022-07-30T20:11:05.895Z,5.63
2022-07-30T20:13:44.928Z,6.07
2022-07-30T20:16:15.363Z,6.43
2022-07-30T20:18:43.088Z,11.23
2022-07-30T20:21:15.183Z,6.25
2022-07-30T20:23:42.878Z,5.13
2022-07-30T20:26:13.496Z,9.02
2022-07-30T20:28:41.938Z,7.07
2022-07-30T20:31:08.764Z,7.77
2022-07-30T20:33:37.936Z,9.93
2022-07-30T20:36:09.813Z,9.20
2022-07-30T20:38:38.962Z,11.35
2022-07-30T20:41:09.971Z,7.20
2022-07-30T20:43:54.937Z,6.43
2022-07-30T20:46:23.369Z,12.73
2022-07-30T20:48:52.242Z,10.43
2022-07-30T20:51:19.002Z,18.38
2022-07-30T20:53:52.827Z,9.52
2022-07-30T20:56:22.599Z,6.40
2022-07-30T20:58:50.341Z,8.35
2022-07-30T21:01:18.869Z,8.98
2022-07-30T21:03:48.937Z,12.25
2022-07-30T21:06:16.750Z,11.80
2022-07-30T21:08:43.392Z,6.83
2022-07-30T21:11:10.122Z,6.72
2022-07-30T21:13:41.973Z,6.72
2022-07-30T21:16:15.825Z,9.27
2022-07-30T21:18:50.218Z,9.65
2022-07-30T21:21:30.852Z,8.73
2022-07-30T21:24:05.310Z,7.88
2022-07-30T21:26:32.022Z,9.15
2022-07-30T21:29:00.639Z,12.70
2022-07-30T21:34:14.807Z,13.07
2022-07-30T21:36:42.689Z,7.82
2022-07-30T21:39:09.826Z,9.25
2022-07-30T21:41:41.034Z,9.23
2022-07-30T21:44:08.202Z,10.25
2022-07-30T21:46:37.647Z,8.17
2022-07-30T21:49:06.810Z,10.82
2022-07-30T21:51:34.406Z,11.13
2022-07-30T21:54:01.230Z,7.40
2022-07-30T21:56:29.228Z,8.55
2022-07-30T21:58:55.926Z,7.77
2022-07-30T22:01:22.791Z,5.85
2022-07-30T22:04:03.834Z,6.93
2022-07-30T22:06:36.558Z,6.70
2022-07-30T22:09:18.091Z,5.57
2022-07-30T22:11:54.585Z,6.03
2022-07-30T22:14:22.187Z,5.35
2022-07-30T22:16:49.012Z,4.68
2022-07-30T22:19:17.147Z,5.00
2022-07-30T22:21:46.662Z,7.20
2022-07-30T22:24:31.438Z,5.90
2022-07-30T22:27:01.130Z,8.18
2022-07-30T22:29:33.851Z,8.45
2022-07-30T22:32:03.527Z,7.40
2022-07-30T22:34:30.635Z,7.05
2022-07-30T22:36:57.521Z,4.73
2022-07-30T22:39:24.487Z,6.60
2022-07-30T22:41:58.584Z,6.85
2022-07-30T22:44:27.679Z,5.22
2022-07-30T22:46:56.345Z,5.20
2022-07-30T22:49:34.849Z,4.77
2022-07-30T22:52:19.796Z,6.88
2022-07-30T22:55:02.167Z,6.40
2022-07-30T22:57:37.751Z,8.80
2022-07-30T23:00:07.159Z,5.30
2022-07-30T23:02:38.947Z,5.87
2022-07-30T23:05:06.681Z,4.75
2022-07-30T23:07:38.753Z,6.28
2022-07-30T23:10:17.615Z,7.53
2022-07-30T23:12:27.407Z,8.63
2022-07-30T23:12:49.127Z,5.82
2022-07-30T23:15:16.002Z,6.93
2022-07-30T23:17:43.524Z,5.32
2022-07-30T23:20:14.611Z,5.47
2022-07-30T23:22:41.699Z,5.95
2022-07-30T23:25:12.706Z,7.13
2022-07-30T23:27:40.655Z,6.13
2022-07-30T23:30:08.806Z,5.97
2022-07-30T23:32:36.582Z,5.80
2022-07-30T23:35:03.632Z,5.50
2022-07-30T23:37:47.604Z,5.43
2022-07-30T23:40:19.068Z,5.87
2022-07-30T23:42:47.357Z,5.03
2022-07-30T23:45:14.438Z,6.25
2022-07-30T23:47:54.601Z,5.78
2022-07-30T23:50:28.552Z,9.13
2022-07-30T23:52:55.691Z,4.67
2022-07-30T23:55:22.617Z,6.13
2022-07-30T23:57:49.323Z,7.63
